createdAt,value
2017-04-26T00:00:10.176Z,36.48
2017-04-26T00:01:10.205Z,32.25
2017-04-26T00:02:10.329Z,29.27
2017-04-26T00:03:11.059Z,32.60
2017-04-26T00:04:12.078Z,34.20
2017-04-26T00:05:12.106Z,33.62
2017-04-26T00:06:12.835Z,38.60
2017-04-26T00:07:12.827Z,36.00
2017-04-26T00:08:13.551Z,32.03
2017-04-26T00:09:14.649Z,34.48
2017-04-26T00:10:14.643Z,34.92
2017-04-26T00:11:14.582Z,41.63
2017-04-26T00:12:14.499Z,35.97
2017-04-26T00:13:14.507Z,34.58
2017-04-26T00:14:14.787Z,35.37
2017-04-26T00:15:14.836Z,33.28
2017-04-26T00:16:14.837Z,33.85
2017-04-26T00:17:14.820Z,35.95
2017-04-26T00:18:14.761Z,34.85
2017-04-26T00:19:15.130Z,28.52
2017-04-26T00:20:15.092Z,41.60
2017-04-26T00:21:15.025Z,42.28
2017-04-26T00:22:15.079Z,35.92
2017-04-26T00:23:22.980Z,35.37
2017-04-26T00:24:23.541Z,39.18
2017-04-26T00:25:23.472Z,36.20
2017-04-26T00:26:24.264Z,35.60
2017-04-26T00:27:24.252Z,32.35
2017-04-26T00:28:24.201Z,36.35
2017-04-26T00:29:24.511Z,32.57
2017-04-26T00:30:24.485Z,36.62
2017-04-26T00:31:24.414Z,33.65
2017-04-26T00:32:24.424Z,36.20
2017-04-26T00:33:24.357Z,31.80
2017-04-26T00:34:24.732Z,27.27
2017-04-26T00:35:24.694Z,33.30
2017-04-26T00:36:24.675Z,35.50
2017-04-26T00:37:25.404Z,30.78
2017-04-26T00:38:25.363Z,29.30
2017-04-26T00:39:25.721Z,30.87
2017-04-26T00:40:26.422Z,32.07
2017-04-26T00:41:26.411Z,31.73
2017-04-26T00:42:26.343Z,30.48
2017-04-26T00:43:27.044Z,29.12
2017-04-26T00:44:27.306Z,28.57
2017-04-26T00:45:27.260Z,27.78
2017-04-26T00:46:27.249Z,26.73
2017-04-26T00:47:27.278Z,27.53
2017-04-26T00:48:27.242Z,39.55
2017-04-26T00:49:27.596Z,31.77
2017-04-26T00:50:27.639Z,26.67
2017-04-26T00:51:28.375Z,26.92
2017-04-26T00:52:28.326Z,29.32
2017-04-26T00:53:28.243Z,29.37
2017-04-26T00:54:28.539Z,27.43
2017-04-26T00:55:28.446Z,25.43
2017-04-26T00:56:28.402Z,29.32
2017-04-26T00:57:28.345Z,22.68
2017-04-26T00:58:28.267Z,27.03
2017-04-26T00:59:28.235Z,31.73
2017-04-26T01:00:28.786Z,25.18
2017-04-26T01:01:28.759Z,30.90
2017-04-26T01:02:29.489Z,21.07
2017-04-26T01:03:29.471Z,26.45
2017-04-26T01:04:29.470Z,27.63
2017-04-26T01:05:29.807Z,29.10
2017-04-26T01:06:29.773Z,27.52
2017-04-26T01:07:30.478Z,29.48
2017-04-26T01:08:30.447Z,32.45
2017-04-26T01:09:30.128Z,32.37
2017-04-26T01:10:30.489Z,30.45
2017-04-26T01:11:30.427Z,29.82
2017-04-26T01:12:30.406Z,32.45
2017-04-26T01:13:30.399Z,33.60
2017-04-26T01:14:30.398Z,34.90
2017-04-26T01:15:30.625Z,32.67
2017-04-26T01:16:30.634Z,34.15
2017-04-26T01:17:30.558Z,31.90
2017-04-26T01:18:31.721Z,38.27
2017-04-26T01:19:31.661Z,37.30
2017-04-26T01:20:31.981Z,31.28
2017-04-26T01:21:31.970Z,34.88
2017-04-26T01:22:31.920Z,35.42
2017-04-26T01:23:32.727Z,32.33
2017-04-26T01:24:32.676Z,30.25
2017-04-26T01:25:32.768Z,28.32
2017-04-26T01:26:32.799Z,29.07
2017-04-26T01:27:32.841Z,31.00
2017-04-26T01:28:32.825Z,31.93
2017-04-26T01:29:32.743Z,30.50
2017-04-26T01:30:33.075Z,34.95
2017-04-26T01:31:33.005Z,36.02
2017-04-26T01:32:33.024Z,37.45
2017-04-26T01:33:33.050Z,37.25
2017-04-26T01:34:33.005Z,37.90
2017-04-26T01:35:33.314Z,33.70
2017-04-26T01:36:33.370Z,34.68
2017-04-26T01:37:33.340Z,37.45
2017-04-26T01:38:34.036Z,33.28
2017-04-26T01:39:34.015Z,37.30
2017-04-26T01:40:34.208Z,41.95
2017-04-26T01:41:34.151Z,36.65
2017-04-26T01:42:34.505Z,43.38
2017-04-26T01:43:35.222Z,41.63
2017-04-26T01:44:35.929Z,41.95
2017-04-26T01:45:36.223Z,37.38
2017-04-26T01:46:36.183Z,42.10
2017-04-26T01:47:36.154Z,38.07
2017-04-26T01:48:36.891Z,41.03
2017-04-26T01:49:36.865Z,32.87
2017-04-26T01:50:37.186Z,37.75
2017-04-26T01:51:36.919Z,41.15
2017-04-26T01:52:36.697Z,36.58
2017-04-26T01:53:36.702Z,41.87
2017-04-26T01:54:37.438Z,40.00
2017-04-26T01:55:38.441Z,42.68
2017-04-26T01:56:38.275Z,43.02
2017-04-26T01:57:38.274Z,33.40
2017-04-26T01:58:39.119Z,35.17
2017-04-26T01:59:39.137Z,37.38
2017-04-26T02:00:39.502Z,36.00
2017-04-26T02:01:39.785Z,33.22
2017-04-26T02:02:39.858Z,37.33
2017-04-26T02:03:39.839Z,37.02
2017-04-26T02:04:40.665Z,36.12
2017-04-26T02:05:41.672Z,34.42
2017-04-26T02:06:41.666Z,35.95
2017-04-26T02:07:41.596Z,33.70
2017-04-26T02:08:41.540Z,34.77
2017-04-26T02:09:41.622Z,38.33
2017-04-26T02:10:42.723Z,40.68
2017-04-26T02:11:42.637Z,36.43
2017-04-26T02:12:42.599Z,37.47
2017-04-26T02:13:42.309Z,34.92
2017-04-26T02:14:42.328Z,34.93
2017-04-26T02:15:42.748Z,39.57
2017-04-26T02:16:42.738Z,34.77
2017-04-26T02:17:42.685Z,34.82
2017-04-26T02:18:43.410Z,39.27
2017-04-26T02:19:43.377Z,35.42
2017-04-26T02:20:43.702Z,36.98
2017-04-26T02:21:43.399Z,38.23
2017-04-26T02:22:44.126Z,38.50
2017-04-26T02:23:44.073Z,38.83
2017-04-26T02:24:44.077Z,35.93
2017-04-26T02:25:45.245Z,38.08
2017-04-26T02:26:45.340Z,40.25
2017-04-26T02:27:45.403Z,38.70
2017-04-26T02:28:45.362Z,43.10
2017-04-26T02:29:45.326Z,37.68
2017-04-26T02:30:46.437Z,43.47
2017-04-26T02:31:46.416Z,41.27
2017-04-26T02:32:46.378Z,45.65
2017-04-26T02:33:46.363Z,38.18
2017-04-26T02:34:47.065Z,37.08
2017-04-26T02:35:47.364Z,35.68
2017-04-26T02:36:47.377Z,43.28
2017-04-26T02:37:47.338Z,37.83
2017-04-26T02:38:47.133Z,47.22
2017-04-26T02:39:47.105Z,41.87
2017-04-26T02:40:47.409Z,42.28
2017-04-26T02:41:47.344Z,40.35
2017-04-26T02:42:48.174Z,40.10
2017-04-26T02:43:48.903Z,46.93
2017-04-26T02:44:49.570Z,43.00
2017-04-26T02:45:49.905Z,50.57
2017-04-26T02:46:49.885Z,44.73
2017-04-26T02:47:49.851Z,46.70
2017-04-26T02:48:49.784Z,39.83
2017-04-26T02:49:50.176Z,43.73
2017-04-26T02:50:50.644Z,42.87
2017-04-26T02:51:50.622Z,43.72
2017-04-26T02:52:50.577Z,47.35
2017-04-26T02:53:51.272Z,43.45
2017-04-26T02:54:51.287Z,43.43
2017-04-26T02:55:51.710Z,38.73
2017-04-26T02:56:51.663Z,39.00
2017-04-26T02:57:51.715Z,41.40
2017-04-26T02:58:51.655Z,44.45
2017-04-26T02:59:51.619Z,41.67
2017-04-26T03:00:51.930Z,51.20
2017-04-26T03:01:51.942Z,49.35
2017-04-26T03:02:52.000Z,44.27
2017-04-26T03:03:52.013Z,46.37
2017-04-26T03:04:52.237Z,50.83
2017-04-26T03:05:52.579Z,48.98
2017-04-26T03:06:52.656Z,51.97
2017-04-26T03:07:52.596Z,48.88
2017-04-26T03:08:52.604Z,50.13
2017-04-26T03:09:52.599Z,48.87
2017-04-26T03:10:52.894Z,47.58
2017-04-26T03:11:52.855Z,47.88
2017-04-26T03:12:52.768Z,49.77
2017-04-26T03:13:52.713Z,51.62
2017-04-26T03:14:52.611Z,48.85
2017-04-26T03:15:53.656Z,47.75
2017-04-26T03:16:53.654Z,50.97
2017-04-26T03:17:53.612Z,52.60
2017-04-26T03:18:53.733Z,47.35
2017-04-26T03:19:53.783Z,55.15
2017-04-26T03:20:54.114Z,57.17
2017-04-26T03:21:54.071Z,47.13
2017-04-26T03:22:54.044Z,53.93
2017-04-26T03:23:54.106Z,53.15
2017-04-26T03:24:54.062Z,54.23
2017-04-26T03:25:55.077Z,52.85
2017-04-26T03:26:55.811Z,50.70
2017-04-26T03:27:56.468Z,50.48
2017-04-26T03:28:56.430Z,51.15
2017-04-26T03:29:57.120Z,50.02
2017-04-26T03:30:57.420Z,54.10
2017-04-26T03:31:57.377Z,55.67
2017-04-26T03:32:58.079Z,49.58
2017-04-26T03:33:58.022Z,47.10
2017-04-26T03:34:57.955Z,48.97
2017-04-26T03:35:58.203Z,53.63
2017-04-26T03:36:59.052Z,46.88
2017-04-26T03:37:59.716Z,49.02
2017-04-26T03:38:59.686Z,49.20
2017-04-26T03:39:59.645Z,46.33
2017-04-26T03:40:59.964Z,44.68
2017-04-26T03:41:59.917Z,46.82
2017-04-26T03:42:59.883Z,42.68
2017-04-26T03:43:59.855Z,52.52
2017-04-26T03:44:59.877Z,45.98
2017-04-26T03:46:00.184Z,45.93
2017-04-26T03:47:00.136Z,47.55
2017-04-26T03:48:00.847Z,37.20
2017-04-26T03:49:01.616Z,41.50
2017-04-26T03:50:01.639Z,40.62
2017-04-26T03:51:01.967Z,37.42
2017-04-26T03:52:01.979Z,40.33
2017-04-26T03:53:01.925Z,36.83
2017-04-26T03:54:04.949Z,35.22
2017-04-26T03:55:04.953Z,33.18
2017-04-26T03:56:04.981Z,36.55
2017-04-26T03:57:05.008Z,31.33
2017-04-26T03:58:05.743Z,34.13
2017-04-26T03:59:05.705Z,27.33
2017-04-26T04:00:05.637Z,27.60
2017-04-26T04:01:06.467Z,28.63
2017-04-26T04:02:07.156Z,28.00
2017-04-26T04:03:07.178Z,23.90
2017-04-26T04:04:07.170Z,25.38
2017-04-26T04:05:07.125Z,23.28
2017-04-26T04:06:07.605Z,26.13
2017-04-26T04:07:07.592Z,25.42
2017-04-26T04:08:07.586Z,28.77
2017-04-26T04:09:07.642Z,26.83
2017-04-26T04:10:20.928Z,32.72
2017-04-26T04:11:21.007Z,28.30
2017-04-26T04:12:21.026Z,27.52
2017-04-26T04:13:20.990Z,28.45
2017-04-26T04:14:21.002Z,28.20
2017-04-26T04:15:20.994Z,27.78
2017-04-26T04:16:21.988Z,25.38
2017-04-26T04:17:21.942Z,24.68
2017-04-26T04:18:21.893Z,32.38
2017-04-26T04:19:21.833Z,26.55
2017-04-26T04:20:21.841Z,25.42
2017-04-26T04:21:22.804Z,28.88
2017-04-26T04:22:22.768Z,26.35
2017-04-26T04:23:22.747Z,27.57
2017-04-26T04:24:22.727Z,28.28
2017-04-26T04:25:26.469Z,24.75
2017-04-26T04:26:26.726Z,27.88
2017-04-26T04:27:26.705Z,33.53
2017-04-26T04:28:26.683Z,27.55
2017-04-26T04:29:26.650Z,27.82
2017-04-26T04:30:26.589Z,25.87
2017-04-26T04:31:26.876Z,25.93
2017-04-26T04:32:26.874Z,28.13
2017-04-26T04:33:26.832Z,24.33
2017-04-26T04:34:27.522Z,26.03
2017-04-26T04:35:27.218Z,24.68
2017-04-26T04:36:28.274Z,25.65
2017-04-26T04:37:28.952Z,24.87
2017-04-26T04:38:28.916Z,27.92
2017-04-26T04:39:28.910Z,34.32
2017-04-26T04:40:28.872Z,40.50
2017-04-26T04:41:29.201Z,44.40
2017-04-26T04:42:29.174Z,37.48
2017-04-26T04:43:29.121Z,25.12
2017-04-26T04:44:29.193Z,26.80
2017-04-26T04:45:29.184Z,33.57
2017-04-26T04:46:29.413Z,24.83
2017-04-26T04:47:29.371Z,27.73
2017-04-26T04:48:30.049Z,23.97
2017-04-26T04:49:29.974Z,23.33
2017-04-26T04:50:29.901Z,25.38
2017-04-26T04:51:31.002Z,24.85
2017-04-26T04:52:30.743Z,25.95
2017-04-26T04:53:30.867Z,21.65
2017-04-26T04:54:30.858Z,23.27
2017-04-26T04:55:31.581Z,19.78
2017-04-26T04:56:31.967Z,18.58
2017-04-26T04:57:32.092Z,20.37
2017-04-26T04:58:32.164Z,20.32
2017-04-26T04:59:32.115Z,20.85
2017-04-26T05:00:32.130Z,20.45
2017-04-26T05:01:32.404Z,21.07
2017-04-26T05:02:32.346Z,19.32
2017-04-26T05:03:32.300Z,23.67
2017-04-26T05:04:32.294Z,20.95
2017-04-26T05:05:32.263Z,19.45
2017-04-26T05:06:32.497Z,18.68
2017-04-26T05:07:32.461Z,19.62
2017-04-26T05:08:33.177Z,19.23
2017-04-26T05:09:33.895Z,16.72
2017-04-26T05:10:33.947Z,18.23
2017-04-26T05:11:34.335Z,17.47
2017-04-26T05:12:34.281Z,18.40
2017-04-26T05:13:34.260Z,21.05
2017-04-26T05:14:34.252Z,18.25
2017-04-26T05:15:34.216Z,18.57
2017-04-26T05:16:34.189Z,12.37
2017-04-26T05:17:34.178Z,17.37
2017-04-26T05:18:34.127Z,13.18
2017-04-26T05:19:34.069Z,15.13
2017-04-26T05:20:34.758Z,14.63
2017-04-26T05:21:34.684Z,13.58
2017-04-26T05:22:34.981Z,14.22
2017-04-26T05:23:34.875Z,15.60
2017-04-26T05:24:34.811Z,12.70
2017-04-26T05:25:35.518Z,14.40
2017-04-26T05:26:35.510Z,13.20
2017-04-26T05:27:35.759Z,12.18
2017-04-26T05:28:36.498Z,12.17
2017-04-26T05:29:39.454Z,13.82
2017-04-26T05:30:40.148Z,13.33
2017-04-26T05:31:40.186Z,14.05
2017-04-26T05:32:40.561Z,12.75
2017-04-26T05:33:40.483Z,13.00
2017-04-26T05:34:40.458Z,13.30
2017-04-26T05:35:40.502Z,14.13
2017-04-26T05:36:40.817Z,12.60
2017-04-26T05:37:41.120Z,11.85
2017-04-26T05:38:40.885Z,23.13
2017-04-26T05:39:40.611Z,13.52
2017-04-26T05:40:41.094Z,14.87
2017-04-26T05:41:41.084Z,16.15
2017-04-26T05:42:41.439Z,11.47
2017-04-26T05:43:41.400Z,13.42
2017-04-26T05:44:41.330Z,10.98
2017-04-26T05:45:41.282Z,14.87
2017-04-26T05:46:42.051Z,13.22
2017-04-26T05:47:42.308Z,12.85
2017-04-26T05:48:42.302Z,12.65
2017-04-26T05:49:42.234Z,12.35
2017-04-26T05:50:42.254Z,13.37
2017-04-26T05:51:42.213Z,12.30
2017-04-26T05:52:42.185Z,11.43
2017-04-26T05:53:42.168Z,12.68
2017-04-26T05:54:42.853Z,11.75
2017-04-26T05:55:42.786Z,10.12
2017-04-26T05:56:43.526Z,8.12
2017-04-26T05:57:43.460Z,10.18
2017-04-26T05:58:43.417Z,13.95
2017-04-26T05:59:44.080Z,11.30
2017-04-26T06:00:44.064Z,9.83
2017-04-26T06:01:44.161Z,9.22
2017-04-26T06:02:44.850Z,11.02
2017-04-26T06:03:45.161Z,10.27
2017-04-26T06:04:45.129Z,13.38
2017-04-26T06:05:45.093Z,11.50
2017-04-26T06:06:45.084Z,12.00
2017-04-26T06:07:45.067Z,9.07
2017-04-26T06:08:45.295Z,11.52
2017-04-26T06:09:45.321Z,12.58
2017-04-26T06:10:45.355Z,11.33
2017-04-26T06:11:45.319Z,12.58
2017-04-26T06:12:45.317Z,11.05
2017-04-26T06:13:45.650Z,10.83
2017-04-26T06:14:45.617Z,13.92
2017-04-26T06:15:45.590Z,11.17
2017-04-26T06:16:45.618Z,11.25
2017-04-26T06:17:45.590Z,15.40
2017-04-26T06:18:46.616Z,17.97
2017-04-26T06:19:47.487Z,14.85
2017-04-26T06:20:47.857Z,17.17
2017-04-26T06:21:48.254Z,15.43
2017-04-26T06:22:48.213Z,8.27
2017-04-26T06:23:48.662Z,10.35
2017-04-26T06:24:48.605Z,10.47
2017-04-26T06:25:49.361Z,12.90
2017-04-26T06:26:49.423Z,10.63
2017-04-26T06:27:50.168Z,12.55
2017-04-26T06:28:50.466Z,11.93
2017-04-26T06:29:51.130Z,12.68
2017-04-26T06:30:51.087Z,10.92
2017-04-26T06:31:51.822Z,11.05
2017-04-26T06:32:51.853Z,13.93
2017-04-26T06:33:52.925Z,14.00
2017-04-26T06:34:52.841Z,12.75
2017-04-26T06:35:53.539Z,26.22
2017-04-26T06:36:53.498Z,12.17
2017-04-26T06:37:53.493Z,14.25
2017-04-26T06:38:55.814Z,13.42
2017-04-26T06:39:55.818Z,10.50
2017-04-26T06:40:55.779Z,11.25
2017-04-26T06:41:55.750Z,13.68
2017-04-26T06:42:55.714Z,10.72
2017-04-26T06:43:56.053Z,14.30
2017-04-26T06:44:56.057Z,12.60
2017-04-26T06:45:56.049Z,10.63
2017-04-26T06:46:56.019Z,12.68
2017-04-26T06:47:55.955Z,12.32
2017-04-26T06:48:56.289Z,14.42
2017-04-26T06:49:56.278Z,12.95
2017-04-26T06:50:56.214Z,12.18
2017-04-26T06:51:56.254Z,11.13
2017-04-26T06:52:56.262Z,12.72
2017-04-26T06:53:56.803Z,13.38
2017-04-26T06:54:56.804Z,9.93
2017-04-26T06:55:56.778Z,9.38
2017-04-26T06:56:57.501Z,12.62
2017-04-26T06:57:57.913Z,12.55
2017-04-26T06:58:58.196Z,11.15
2017-04-26T06:59:58.156Z,11.18
2017-04-26T07:00:58.094Z,12.22
2017-04-26T07:01:58.045Z,14.92
2017-04-26T07:03:07.022Z,12.82
2017-04-26T07:04:08.271Z,10.93
2017-04-26T07:05:08.282Z,12.43
2017-04-26T07:06:08.275Z,12.15
2017-04-26T07:07:08.239Z,12.27
2017-04-26T07:08:08.674Z,12.18
2017-04-26T07:09:08.951Z,12.75
2017-04-26T07:10:08.918Z,12.42
2017-04-26T07:11:08.874Z,12.45
2017-04-26T07:12:08.900Z,11.00
2017-04-26T07:13:08.852Z,11.60
2017-04-26T07:14:09.994Z,10.78
2017-04-26T07:15:10.677Z,12.32
2017-04-26T07:16:10.636Z,13.68
2017-04-26T07:17:10.579Z,26.12
2017-04-26T07:18:10.565Z,23.37
2017-04-26T07:19:10.904Z,32.17
2017-04-26T07:20:10.918Z,17.95
2017-04-26T07:21:10.978Z,21.20
2017-04-26T07:22:10.954Z,17.37
2017-04-26T07:23:11.707Z,16.55
2017-04-26T07:24:12.088Z,20.43
2017-04-26T07:25:12.886Z,10.20
2017-04-26T07:26:12.815Z,13.88
2017-04-26T07:27:13.478Z,13.05
2017-04-26T07:28:14.184Z,8.75
2017-04-26T07:29:14.400Z,12.97
2017-04-26T07:30:14.343Z,11.12
2017-04-26T07:31:14.293Z,13.17
2017-04-26T07:32:14.999Z,13.52
2017-04-26T07:33:14.956Z,12.72
2017-04-26T07:34:15.301Z,12.62
2017-04-26T07:35:15.290Z,12.97
2017-04-26T07:36:15.239Z,15.03
2017-04-26T07:37:15.921Z,9.68
2017-04-26T07:38:15.948Z,11.63
2017-04-26T07:39:16.928Z,16.42
2017-04-26T07:40:17.654Z,12.82
2017-04-26T07:41:17.571Z,15.92
2017-04-26T07:42:17.521Z,19.42
2017-04-26T07:43:17.482Z,18.10
2017-04-26T07:44:17.548Z,16.83
2017-04-26T07:45:17.745Z,13.22
2017-04-26T07:46:18.455Z,12.88
2017-04-26T07:47:18.476Z,13.15
2017-04-26T07:48:19.171Z,9.63
2017-04-26T07:49:19.160Z,11.18
2017-04-26T07:50:19.177Z,14.22
2017-04-26T07:51:19.129Z,15.87
2017-04-26T07:52:19.067Z,19.63
2017-04-26T07:53:18.984Z,26.75
2017-04-26T07:54:19.026Z,18.18
2017-04-26T07:55:19.724Z,16.07
2017-04-26T07:56:19.724Z,36.83
2017-04-26T07:57:19.686Z,16.40
2017-04-26T07:58:19.642Z,21.05
2017-04-26T07:59:19.623Z,13.22
2017-04-26T08:00:19.971Z,20.87
2017-04-26T08:01:19.988Z,15.95
2017-04-26T08:02:19.909Z,10.70
2017-04-26T08:03:19.917Z,12.52
2017-04-26T08:04:20.702Z,12.05
2017-04-26T08:05:21.032Z,12.45
2017-04-26T08:06:20.963Z,11.38
2017-04-26T08:07:20.908Z,14.53
2017-04-26T08:08:20.898Z,17.58
2017-04-26T08:09:20.873Z,13.65
2017-04-26T08:10:21.863Z,11.23
2017-04-26T08:11:21.834Z,9.07
2017-04-26T08:12:21.788Z,10.62
2017-04-26T08:13:21.759Z,9.83
2017-04-26T08:14:21.679Z,7.70
2017-04-26T08:15:21.888Z,11.52
2017-04-26T08:16:21.947Z,9.60
2017-04-26T08:17:21.996Z,7.95
2017-04-26T08:18:21.930Z,8.42
2017-04-26T08:19:21.949Z,11.88
2017-04-26T08:20:22.349Z,12.30
2017-04-26T08:21:22.275Z,10.50
2017-04-26T08:22:22.382Z,9.52
2017-04-26T08:23:23.031Z,8.93
2017-04-26T08:24:23.051Z,8.98
2017-04-26T08:25:23.277Z,9.23
2017-04-26T08:26:23.297Z,8.32
2017-04-26T08:27:23.260Z,10.05
2017-04-26T08:28:23.277Z,11.50
2017-04-26T08:29:23.303Z,11.50
2017-04-26T08:30:23.572Z,10.43
2017-04-26T08:31:23.538Z,11.33
2017-04-26T08:32:23.517Z,10.47
2017-04-26T08:33:23.499Z,8.02
2017-04-26T08:34:23.511Z,8.70
2017-04-26T08:35:23.791Z,11.42
2017-04-26T08:36:24.543Z,8.65
2017-04-26T08:37:24.583Z,9.30
2017-04-26T08:38:25.345Z,10.10
2017-04-26T08:39:25.457Z,7.30
2017-04-26T08:40:26.691Z,11.47
2017-04-26T08:41:26.719Z,11.08
2017-04-26T08:42:26.719Z,9.50
2017-04-26T08:43:26.666Z,8.72
2017-04-26T08:44:26.677Z,6.67
2017-04-26T08:45:26.917Z,9.17
2017-04-26T08:46:27.753Z,16.33
2017-04-26T08:47:27.708Z,19.25
2017-04-26T08:48:27.706Z,28.37
2017-04-26T08:49:27.661Z,15.98
2017-04-26T08:50:28.774Z,11.82
2017-04-26T08:51:28.815Z,11.20
2017-04-26T08:52:28.908Z,13.30
2017-04-26T08:53:29.219Z,10.08
2017-04-26T08:54:29.916Z,13.53
2017-04-26T08:55:30.233Z,13.62
2017-04-26T08:56:30.235Z,12.22
2017-04-26T08:57:30.217Z,16.47
2017-04-26T08:58:30.166Z,16.82
2017-04-26T08:59:30.944Z,18.67
2017-04-26T09:00:31.281Z,20.48
2017-04-26T09:01:31.324Z,15.75
2017-04-26T09:02:31.801Z,17.08
2017-04-26T09:03:32.604Z,13.32
2017-04-26T09:04:33.507Z,13.53
2017-04-26T09:05:33.891Z,9.87
2017-04-26T09:06:33.866Z,8.55
2017-04-26T09:07:33.805Z,9.32
2017-04-26T09:08:33.757Z,8.25
2017-04-26T09:09:33.742Z,6.78
2017-04-26T09:10:34.178Z,8.15
2017-04-26T09:11:34.169Z,6.83
2017-04-26T09:12:34.194Z,5.72
2017-04-26T09:13:34.165Z,7.27
2017-04-26T09:14:34.861Z,8.12
2017-04-26T09:15:35.160Z,8.53
2017-04-26T09:16:34.848Z,5.35
2017-04-26T09:17:35.563Z,5.38
2017-04-26T09:18:36.256Z,5.48
2017-04-26T09:19:36.185Z,7.55
2017-04-26T09:20:36.626Z,7.32
2017-04-26T09:21:36.660Z,7.58
2017-04-26T09:22:37.470Z,5.28
2017-04-26T09:23:37.416Z,6.07
2017-04-26T09:24:37.449Z,6.93
2017-04-26T09:25:37.698Z,6.40
2017-04-26T09:26:37.690Z,6.00
2017-04-26T09:27:37.671Z,5.27
2017-04-26T09:28:37.765Z,7.63
2017-04-26T09:29:37.779Z,4.77
2017-04-26T09:30:38.056Z,3.88
2017-04-26T09:31:38.758Z,5.80
2017-04-26T09:32:38.717Z,4.82
2017-04-26T09:33:38.729Z,5.52
2017-04-26T09:34:38.715Z,5.58
2017-04-26T09:35:38.999Z,3.70
2017-04-26T09:36:39.688Z,4.58
2017-04-26T09:37:39.713Z,6.28
2017-04-26T09:38:39.666Z,6.63
2017-04-26T09:39:39.633Z,5.58
2017-04-26T09:40:39.929Z,5.80
2017-04-26T09:41:39.887Z,7.02
2017-04-26T09:42:39.815Z,5.17
2017-04-26T09:43:39.790Z,65.30
2017-04-26T09:44:39.768Z,61.00
2017-04-26T09:45:40.759Z,8.90
2017-04-26T09:46:40.697Z,5.87
2017-04-26T09:47:40.627Z,6.00
2017-04-26T09:48:40.558Z,4.92
2017-04-26T09:49:40.640Z,5.63
2017-04-26T09:50:41.010Z,5.65
2017-04-26T09:51:41.007Z,5.10
2017-04-26T09:52:40.972Z,6.05
2017-04-26T09:53:40.911Z,7.85
2017-04-26T09:54:40.927Z,5.13
2017-04-26T09:55:41.280Z,5.30
2017-04-26T09:56:41.950Z,6.15
2017-04-26T09:57:41.884Z,5.33
2017-04-26T09:58:41.803Z,5.27
2017-04-26T09:59:42.497Z,5.22
2017-04-26T10:00:42.767Z,8.07
2017-04-26T10:01:42.781Z,4.98
2017-04-26T10:02:43.519Z,4.02
2017-04-26T10:03:43.478Z,5.22
2017-04-26T10:04:44.377Z,5.72
2017-04-26T10:05:44.647Z,4.85
2017-04-26T10:06:44.621Z,5.55
2017-04-26T10:07:44.551Z,6.33
2017-04-26T10:08:44.476Z,7.35
2017-04-26T10:09:44.641Z,5.45
2017-04-26T10:10:45.733Z,7.12
2017-04-26T10:11:45.690Z,6.58
2017-04-26T10:12:45.646Z,7.48
2017-04-26T10:13:45.613Z,8.23
2017-04-26T10:14:45.585Z,6.10
2017-04-26T10:15:46.691Z,7.60
2017-04-26T10:16:46.670Z,6.38
2017-04-26T10:17:47.353Z,7.60
2017-04-26T10:18:48.061Z,4.88
2017-04-26T10:19:48.774Z,5.63
2017-04-26T10:20:49.073Z,10.08
2017-04-26T10:21:48.783Z,10.17
2017-04-26T10:22:49.004Z,6.85
2017-04-26T10:23:48.986Z,8.18
2017-04-26T10:24:48.922Z,11.55
2017-04-26T10:25:50.234Z,8.58
2017-04-26T10:26:50.251Z,12.18
2017-04-26T10:27:50.156Z,9.42
2017-04-26T10:28:50.109Z,8.52
2017-04-26T10:29:49.997Z,7.68
2017-04-26T10:30:49.932Z,5.20
2017-04-26T10:31:49.874Z,9.95
2017-04-26T10:32:49.818Z,7.42
2017-04-26T10:33:49.789Z,9.10
2017-04-26T10:34:50.501Z,6.40
2017-04-26T10:35:50.414Z,5.30
2017-04-26T10:36:50.702Z,6.55
2017-04-26T10:37:50.660Z,6.12
2017-04-26T10:38:50.581Z,5.47
2017-04-26T10:39:50.504Z,5.25
2017-04-26T10:40:50.524Z,5.88
2017-04-26T10:41:50.846Z,6.62
2017-04-26T10:42:50.881Z,6.95
2017-04-26T10:43:50.877Z,6.28
2017-04-26T10:44:50.802Z,6.95
2017-04-26T10:45:50.787Z,7.37
2017-04-26T10:46:51.794Z,7.57
2017-04-26T10:47:51.757Z,5.78
2017-04-26T10:48:51.715Z,6.58
2017-04-26T10:49:51.669Z,6.58
2017-04-26T10:50:51.682Z,5.98
2017-04-26T10:51:52.742Z,6.18
2017-04-26T10:52:52.784Z,6.77
2017-04-26T10:53:53.477Z,6.63
2017-04-26T10:54:53.400Z,4.67
2017-04-26T10:55:53.376Z,4.55
2017-04-26T10:56:53.684Z,6.60
2017-04-26T10:57:53.642Z,5.27
2017-04-26T10:58:55.496Z,7.18
2017-04-26T10:59:55.471Z,5.27
2017-04-26T11:00:55.470Z,6.75
2017-04-26T11:01:55.787Z,6.57
2017-04-26T11:02:55.740Z,5.32
2017-04-26T11:03:55.648Z,6.30
2017-04-26T11:04:55.621Z,4.67
2017-04-26T11:05:56.279Z,8.05
2017-04-26T11:06:56.531Z,3.85
2017-04-26T11:07:56.465Z,5.03
2017-04-26T11:08:56.661Z,3.83
2017-04-26T11:09:57.324Z,5.85
2017-04-26T11:10:57.328Z,5.78
2017-04-26T11:11:57.595Z,5.13
2017-04-26T11:12:57.519Z,6.55
2017-04-26T11:13:58.148Z,4.92
2017-04-26T11:14:58.078Z,5.47
2017-04-26T11:15:58.049Z,5.12
2017-04-26T11:16:58.314Z,5.43
2017-04-26T11:17:58.253Z,5.33
2017-04-26T11:18:58.223Z,9.07
2017-04-26T11:19:58.157Z,6.32
2017-04-26T11:20:58.889Z,5.02
2017-04-26T11:21:59.982Z,5.28
2017-04-26T11:22:59.729Z,5.80
2017-04-26T11:23:59.527Z,10.83
2017-04-26T11:25:00.246Z,9.27
2017-04-26T11:26:00.945Z,6.30
2017-04-26T11:27:01.303Z,6.88
2017-04-26T11:28:01.236Z,5.50
2017-04-26T11:29:01.191Z,5.25
2017-04-26T11:30:01.869Z,5.25
2017-04-26T11:31:01.790Z,17.80
2017-04-26T11:32:02.082Z,23.10
2017-04-26T11:33:02.038Z,12.95
2017-04-26T11:34:02.807Z,18.37
2017-04-26T11:35:02.797Z,26.62
2017-04-26T11:36:02.799Z,26.52
2017-04-26T11:37:03.053Z,5.47
2017-04-26T11:38:03.070Z,18.85
2017-04-26T11:39:03.091Z,9.78
2017-04-26T11:40:03.901Z,15.42
2017-04-26T11:41:03.913Z,12.03
2017-04-26T11:42:04.925Z,11.55
2017-04-26T11:43:04.946Z,15.07
2017-04-26T11:44:04.902Z,32.78
2017-04-26T11:45:04.862Z,55.87
2017-04-26T11:46:05.574Z,6.00
2017-04-26T11:47:05.796Z,5.25
2017-04-26T11:48:06.524Z,6.58
2017-04-26T11:49:07.251Z,32.05
2017-04-26T11:50:07.954Z,8.52
2017-04-26T11:51:07.942Z,8.80
2017-04-26T11:52:07.907Z,5.42
2017-04-26T11:53:07.872Z,5.07
2017-04-26T11:54:07.893Z,5.50
2017-04-26T11:55:08.600Z,5.28
2017-04-26T11:56:08.521Z,7.03
2017-04-26T11:57:09.618Z,12.82
2017-04-26T11:58:09.564Z,36.68
2017-04-26T11:59:09.556Z,9.00
2017-04-26T12:00:09.536Z,5.35
2017-04-26T12:01:09.497Z,6.48
2017-04-26T12:02:09.770Z,4.83
2017-04-26T12:03:09.775Z,4.40
2017-04-26T12:04:09.743Z,9.07
2017-04-26T12:05:09.759Z,13.95
2017-04-26T12:06:09.838Z,55.25
2017-04-26T12:07:10.201Z,26.68
2017-04-26T12:08:10.190Z,12.42
2017-04-26T12:09:10.214Z,4.03
2017-04-26T12:10:10.203Z,3.98
2017-04-26T12:11:10.166Z,6.52
2017-04-26T12:12:10.430Z,17.22
2017-04-26T12:13:10.396Z,31.77
2017-04-26T12:14:10.366Z,22.97
2017-04-26T12:15:11.108Z,10.20
2017-04-26T12:16:11.004Z,7.20
2017-04-26T12:17:11.378Z,7.90
2017-04-26T12:18:11.069Z,5.40
2017-04-26T12:19:11.037Z,6.17
2017-04-26T12:20:11.035Z,6.45
2017-04-26T12:21:10.985Z,5.37
2017-04-26T12:22:10.947Z,5.47
2017-04-26T12:23:10.973Z,4.77
2017-04-26T12:24:10.940Z,11.32
2017-04-26T12:25:10.916Z,12.63
2017-04-26T12:26:10.875Z,6.40
2017-04-26T12:27:10.781Z,8.28
2017-04-26T12:28:11.068Z,7.08
2017-04-26T12:29:11.745Z,5.18
2017-04-26T12:30:11.741Z,4.55
2017-04-26T12:31:11.663Z,5.15
2017-04-26T12:32:11.632Z,5.07
2017-04-26T12:33:11.878Z,3.53
2017-04-26T12:34:11.815Z,3.75
2017-04-26T12:35:11.535Z,3.10
2017-04-26T12:36:11.289Z,3.73
2017-04-26T12:37:12.040Z,4.38
2017-04-26T12:38:13.119Z,6.85
2017-04-26T12:39:13.037Z,5.87
2017-04-26T12:40:12.968Z,5.20
2017-04-26T12:41:12.778Z,5.55
2017-04-26T12:42:13.459Z,3.73
2017-04-26T12:43:13.786Z,5.93
2017-04-26T12:44:13.799Z,5.55
2017-04-26T12:45:13.805Z,4.48
2017-04-26T12:46:14.535Z,3.80
2017-04-26T12:47:14.469Z,4.10
2017-04-26T12:48:15.219Z,7.40
2017-04-26T12:49:14.976Z,5.57
2017-04-26T12:50:14.791Z,5.40
2017-04-26T12:51:15.560Z,4.50
2017-04-26T12:52:15.568Z,5.97
2017-04-26T12:53:15.849Z,4.57
2017-04-26T12:54:15.819Z,6.30
2017-04-26T12:55:15.790Z,7.20
2017-04-26T12:56:15.773Z,3.85
2017-04-26T12:57:16.145Z,3.72
2017-04-26T12:58:16.460Z,4.30
2017-04-26T12:59:16.420Z,4.22
2017-04-26T13:00:16.937Z,3.42
2017-04-26T13:01:16.876Z,3.63
2017-04-26T13:02:16.606Z,4.12
2017-04-26T13:03:16.878Z,4.57